createdAt,value
2023-01-03T00:01:15.971Z,1.13
2023-01-03T00:03:44.595Z,0.30
2023-01-03T00:06:22.144Z,0.97
2023-01-03T00:08:50.859Z,1.00
2023-01-03T00:11:41.194Z,0.80
2023-01-03T00:14:08.165Z,0.73
2023-01-03T00:16:36.134Z,0.80
2023-01-03T00:19:07.602Z,0.47
2023-01-03T00:21:37.535Z,0.30
2023-01-03T00:24:07.096Z,1.20
2023-01-03T00:26:35.106Z,0.80
2023-01-03T00:29:03.708Z,0.60
2023-01-03T00:31:31.678Z,0.37
2023-01-03T00:33:59.609Z,0.43
2023-01-03T00:36:27.557Z,0.83
2023-01-03T00:38:56.896Z,0.47
2023-01-03T00:41:24.862Z,0.70
2023-01-03T00:43:52.918Z,0.43
2023-01-03T00:46:22.168Z,0.73
2023-01-03T00:48:50.788Z,1.37
2023-01-03T00:51:20.806Z,0.60
2023-01-03T00:53:50.265Z,0.53
2023-01-03T00:56:22.320Z,0.43
2023-01-03T00:58:50.720Z,0.57
2023-01-03T01:01:21.087Z,1.17
2023-01-03T01:03:51.753Z,0.80
2023-01-03T01:06:21.725Z,0.83
2023-01-03T01:08:50.953Z,0.67
2023-01-03T01:11:20.750Z,1.30
2023-01-03T01:13:49.600Z,0.83
2023-01-03T01:16:20.309Z,0.57
2023-01-03T01:18:50.176Z,0.37
2023-01-03T01:21:21.043Z,0.70
2023-01-03T01:23:49.577Z,1.13
2023-01-03T01:26:21.731Z,0.77
2023-01-03T01:28:50.271Z,1.30
2023-01-03T01:31:20.408Z,0.47
2023-01-03T01:33:48.371Z,0.20
2023-01-03T01:36:18.523Z,0.67
2023-01-03T01:38:47.369Z,1.20
2023-01-03T01:41:37.924Z,1.60
2023-01-03T01:44:26.300Z,0.60
2023-01-03T01:46:54.270Z,0.20
2023-01-03T01:49:26.811Z,1.70
2023-01-03T01:51:54.801Z,1.07
2023-01-03T01:54:22.842Z,1.10
2023-01-03T01:56:54.342Z,0.73
2023-01-03T01:59:23.761Z,0.87
2023-01-03T02:01:52.782Z,1.17
2023-01-03T02:04:24.813Z,1.03
2023-01-03T02:06:53.736Z,1.73
2023-01-03T02:09:21.667Z,0.80
2023-01-03T02:12:15.396Z,0.50
2023-01-03T02:15:00.024Z,0.93
2023-01-03T02:20:22.141Z,1.07
2023-01-03T02:23:28.115Z,0.57
2023-01-03T02:26:34.166Z,0.47
2023-01-03T02:29:17.524Z,0.57
2023-01-03T02:31:53.794Z,0.57
2023-01-03T02:34:31.082Z,1.67
2023-01-03T02:37:07.823Z,0.30
2023-01-03T02:39:42.349Z,0.90
2023-01-03T02:42:32.843Z,0.83
2023-01-03T02:45:09.071Z,0.60
2023-01-03T02:47:44.683Z,0.27
2023-01-03T02:50:14.789Z,1.50
2023-01-03T02:52:44.352Z,0.37
2023-01-03T02:55:17.608Z,0.50
2023-01-03T02:57:51.057Z,0.30
2023-01-03T03:00:23.111Z,0.47
2023-01-03T03:02:58.417Z,0.50
2023-01-03T03:05:29.419Z,0.27
2023-01-03T03:07:57.411Z,0.80
2023-01-03T03:10:43.020Z,0.73
2023-01-03T03:13:17.369Z,0.90
2023-01-03T03:18:21.041Z,0.30
2023-01-03T03:21:06.279Z,0.50
2023-01-03T03:23:56.257Z,0.90
2023-01-03T03:26:27.982Z,1.40
2023-01-03T03:29:06.123Z,0.57
2023-01-03T03:31:40.016Z,1.40
2023-01-03T03:34:13.459Z,1.63
2023-01-03T03:36:49.205Z,1.73
2023-01-03T03:39:36.183Z,0.23
2023-01-03T03:42:33.382Z,0.40
2023-01-03T03:45:04.634Z,0.83
2023-01-03T03:47:40.487Z,0.97
2023-01-03T03:50:15.906Z,1.27
2023-01-03T03:52:47.542Z,0.93
2023-01-03T03:55:19.160Z,0.40
2023-01-03T03:57:51.587Z,1.60
2023-01-03T04:00:24.039Z,0.63
2023-01-03T04:02:53.941Z,0.63
2023-01-03T04:05:27.494Z,0.93
2023-01-03T04:07:55.780Z,0.63
2023-01-03T04:10:25.255Z,0.57
2023-01-03T04:12:53.387Z,0.57
2023-01-03T04:15:21.697Z,0.30
2023-01-03T04:17:49.737Z,0.63
2023-01-03T04:20:18.974Z,1.43
2023-01-03T04:22:48.330Z,0.63
2023-01-03T04:25:16.344Z,0.60
2023-01-03T04:27:44.304Z,1.50
2023-01-03T04:30:13.328Z,0.33
2023-01-03T04:32:41.401Z,1.03
2023-01-03T04:35:09.950Z,0.43
2023-01-03T04:37:38.229Z,0.67
2023-01-03T04:40:08.627Z,0.57
2023-01-03T04:42:54.275Z,0.50
2023-01-03T04:45:22.304Z,0.60
2023-01-03T04:47:50.270Z,1.47
2023-01-03T04:50:18.332Z,0.30
2023-01-03T04:52:46.252Z,1.50
2023-01-03T04:55:15.607Z,1.30
2023-01-03T04:57:43.517Z,1.27
2023-01-03T05:00:12.789Z,1.23
2023-01-03T05:02:41.291Z,0.53
2023-01-03T05:05:09.637Z,0.77
2023-01-03T05:07:37.758Z,1.17
2023-01-03T05:10:06.310Z,0.53
2023-01-03T05:12:35.645Z,0.30
2023-01-03T05:15:03.581Z,0.30
2023-01-03T05:17:31.521Z,0.57
2023-01-03T05:20:16.732Z,0.23
2023-01-03T05:23:02.258Z,0.43
2023-01-03T05:25:47.729Z,1.33
2023-01-03T05:28:17.871Z,0.70
2023-01-03T05:30:45.921Z,0.50
2023-01-03T05:33:14.132Z,0.40
2023-01-03T05:35:42.094Z,0.77
2023-01-03T05:38:10.002Z,0.53
2023-01-03T05:40:41.437Z,0.50
2023-01-03T05:43:09.750Z,0.93
2023-01-03T05:45:39.896Z,0.90
2023-01-03T05:48:09.050Z,1.00
2023-01-03T05:50:37.181Z,0.67
2023-01-03T05:53:05.165Z,0.20
2023-01-03T05:55:33.095Z,1.20
2023-01-03T05:58:01.067Z,0.27
2023-01-03T06:00:29.598Z,0.83
2023-01-03T06:02:58.975Z,1.27
2023-01-03T06:05:27.335Z,0.57
2023-01-03T06:07:55.258Z,0.20
2023-01-03T06:10:23.192Z,0.30
2023-01-03T06:12:51.219Z,0.77
2023-01-03T06:15:20.394Z,1.03
2023-01-03T06:17:58.953Z,0.50
2023-01-03T06:20:29.348Z,0.60
2023-01-03T06:22:57.361Z,1.17
2023-01-03T06:25:25.950Z,0.20
2023-01-03T06:27:53.967Z,0.30
2023-01-03T06:30:22.003Z,0.30
2023-01-03T06:32:49.933Z,0.90
2023-01-03T06:35:17.985Z,0.73
2023-01-03T06:37:47.300Z,1.87
2023-01-03T06:40:15.241Z,0.40
2023-01-03T06:42:45.848Z,0.77
2023-01-03T06:45:32.961Z,0.93
2023-01-03T06:48:22.675Z,0.40
2023-01-03T06:51:08.025Z,1.27
2023-01-03T06:53:38.968Z,0.80
2023-01-03T06:56:08.369Z,1.03
2023-01-03T06:58:37.114Z,0.60
2023-01-03T07:01:06.148Z,1.10
2023-01-03T07:03:34.695Z,1.13
2023-01-03T07:06:02.628Z,1.23
2023-01-03T07:08:30.627Z,0.70
2023-01-03T07:10:59.977Z,0.77
2023-01-03T07:13:45.051Z,1.03
2023-01-03T07:16:16.008Z,0.97
2023-01-03T07:18:49.356Z,1.10
2023-01-03T07:21:23.123Z,0.73
2023-01-03T07:23:51.387Z,1.13
2023-01-03T07:26:20.900Z,1.27
2023-01-03T07:28:48.992Z,0.90
2023-01-03T07:31:17.022Z,1.03
2023-01-03T07:33:45.350Z,0.50
2023-01-03T07:36:15.433Z,1.47
2023-01-03T07:38:45.433Z,0.53
2023-01-03T07:41:14.884Z,0.70
2023-01-03T07:43:46.321Z,0.20
2023-01-03T07:46:17.467Z,1.07
2023-01-03T07:48:46.756Z,0.97
2023-01-03T07:51:16.409Z,0.53
2023-01-03T07:53:45.105Z,0.97
2023-01-03T07:56:15.240Z,1.40
2023-01-03T07:58:45.594Z,0.70
2023-01-03T08:01:15.876Z,0.70
2023-01-03T08:03:44.511Z,1.20
2023-01-03T08:06:14.844Z,0.30
2023-01-03T08:08:43.602Z,0.97
2023-01-03T08:11:30.772Z,1.07
2023-01-03T08:14:00.466Z,0.47
2023-01-03T08:16:28.564Z,1.30
2023-01-03T08:18:56.560Z,1.47
2023-01-03T08:21:24.479Z,0.50
2023-01-03T08:23:52.385Z,0.20
2023-01-03T08:26:21.019Z,1.10
2023-01-03T08:28:48.984Z,0.90
2023-01-03T08:31:20.937Z,0.60
2023-01-03T08:33:53.612Z,1.60
2023-01-03T08:36:24.600Z,0.77
2023-01-03T08:38:57.927Z,1.63
2023-01-03T08:41:30.584Z,1.35
2023-01-03T08:44:00.032Z,0.90
2023-01-03T08:46:31.191Z,0.67
2023-01-03T08:48:59.134Z,0.83
2023-01-03T08:51:28.831Z,0.97
2023-01-03T08:53:56.847Z,1.13
2023-01-03T08:56:24.817Z,0.83
2023-01-03T08:58:53.044Z,0.60
2023-01-03T09:01:21.835Z,0.77
2023-01-03T09:03:51.415Z,0.67
2023-01-03T09:06:19.995Z,0.90
2023-01-03T09:08:48.039Z,0.83
2023-01-03T09:11:16.166Z,0.80
2023-01-03T09:13:44.093Z,1.17
2023-01-03T09:16:13.187Z,1.33
2023-01-03T09:18:42.281Z,0.30
2023-01-03T09:21:11.611Z,0.73
2023-01-03T09:23:39.860Z,0.83
2023-01-03T09:26:08.641Z,0.67
2023-01-03T09:28:36.642Z,0.73
2023-01-03T09:31:06.242Z,1.67
2023-01-03T09:33:34.256Z,2.10
2023-01-03T09:36:02.183Z,1.17
2023-01-03T09:38:31.505Z,0.93
2023-01-03T09:41:02.169Z,0.93
2023-01-03T09:43:41.003Z,1.37
2023-01-03T09:46:16.870Z,1.57
2023-01-03T09:48:44.912Z,1.20
2023-01-03T09:51:37.282Z,0.80
2023-01-03T09:54:28.751Z,0.97
2023-01-03T09:57:14.331Z,1.03
2023-01-03T09:59:59.881Z,2.30
2023-01-03T10:03:00.195Z,1.40
2023-01-03T10:05:43.918Z,0.87
2023-01-03T10:08:33.056Z,0.77
2023-01-03T10:11:07.769Z,0.70
2023-01-03T10:13:48.075Z,1.73
2023-01-03T10:16:25.901Z,2.10
2023-01-03T10:19:21.747Z,1.40
2023-01-03T10:21:58.032Z,0.97
2023-01-03T10:24:27.449Z,1.53
2023-01-03T10:27:01.638Z,1.43
2023-01-03T10:29:29.565Z,1.43
2023-01-03T10:32:11.513Z,1.07
2023-01-03T10:34:39.847Z,0.90
2023-01-03T10:37:18.483Z,1.70
2023-01-03T10:39:46.569Z,1.00
2023-01-03T10:42:19.772Z,1.07
2023-01-03T10:45:03.372Z,1.10
2023-01-03T10:47:31.412Z,1.02
2023-01-03T10:50:00.614Z,0.43
2023-01-03T10:52:33.272Z,1.07
2023-01-03T10:55:03.515Z,1.03
2023-01-03T10:57:43.895Z,0.77
2023-01-03T11:00:30.793Z,1.70
2023-01-03T11:03:11.798Z,1.07
2023-01-03T11:05:41.324Z,1.03
2023-01-03T11:08:18.198Z,1.20
2023-01-03T11:10:59.873Z,0.83
2023-01-03T11:13:35.809Z,0.87
2023-01-03T11:16:13.558Z,1.70
2023-01-03T11:18:43.091Z,2.50
2023-01-03T11:21:23.356Z,1.83
2023-01-03T11:24:04.356Z,1.10
2023-01-03T11:26:47.963Z,1.40
2023-01-03T11:29:48.379Z,1.00
2023-01-03T11:32:30.019Z,1.20
2023-01-03T11:35:23.419Z,0.77
2023-01-03T11:37:59.445Z,1.00
2023-01-03T11:40:47.981Z,1.47
2023-01-03T11:43:32.647Z,1.67
2023-01-03T11:46:23.614Z,1.03
2023-01-03T11:49:22.096Z,1.07
2023-01-03T11:52:04.379Z,1.20
2023-01-03T11:54:53.325Z,0.77
2023-01-03T11:57:32.809Z,0.73
2023-01-03T12:00:12.671Z,1.23
2023-01-03T12:03:01.139Z,1.53
2023-01-03T12:05:50.195Z,1.07
2023-01-03T12:08:41.452Z,1.20
2023-01-03T12:11:18.325Z,0.77
2023-01-03T12:13:53.853Z,1.20
2023-01-03T12:16:26.371Z,1.03
2023-01-03T12:19:00.494Z,0.97
2023-01-03T12:21:36.384Z,0.52
2023-01-03T12:24:11.909Z,0.43
2023-01-03T12:26:42.597Z,1.13
2023-01-03T12:29:19.440Z,1.10
2023-01-03T12:31:50.645Z,1.60
2023-01-03T12:34:26.908Z,0.90
2023-01-03T12:37:08.520Z,1.53
2023-01-03T12:39:46.422Z,1.27
2023-01-03T12:42:23.023Z,1.17
2023-01-03T12:45:00.027Z,1.97
2023-01-03T12:47:32.112Z,2.00
2023-01-03T12:50:04.467Z,1.27
2023-01-03T12:52:35.863Z,1.57
2023-01-03T12:55:13.401Z,1.27
2023-01-03T12:58:03.900Z,1.43
2023-01-03T13:00:58.591Z,1.83
2023-01-03T13:05:59.766Z,1.57
2023-01-03T13:08:37.180Z,1.20
2023-01-03T13:11:09.649Z,1.80
2023-01-03T13:13:37.617Z,0.87
2023-01-03T13:16:31.559Z,1.80
2023-01-03T13:20:03.187Z,1.48
2023-01-03T13:22:49.196Z,1.27
2023-01-03T13:25:40.289Z,1.10
2023-01-03T13:28:33.478Z,1.83
2023-01-03T13:31:47.865Z,0.80
2023-01-03T13:34:44.858Z,1.42
2023-01-03T13:37:22.825Z,1.20
2023-01-03T13:40:59.851Z,2.03
2023-01-03T13:43:23.185Z,1.90
2023-01-03T13:45:53.915Z,1.03
2023-01-03T13:48:34.300Z,1.20
2023-01-03T13:51:48.293Z,2.17
2023-01-03T13:54:54.964Z,0.70
2023-01-03T13:57:38.433Z,1.77
2023-01-03T14:00:18.915Z,2.23
2023-01-03T14:03:20.037Z,2.03
2023-01-03T14:06:05.080Z,1.43
2023-01-03T14:09:14.256Z,1.20
2023-01-03T14:12:07.210Z,1.60
2023-01-03T14:14:37.290Z,0.97
2023-01-03T14:17:14.872Z,1.90
2023-01-03T14:19:50.957Z,1.77
2023-01-03T14:22:31.730Z,1.50
2023-01-03T14:25:00.585Z,1.47
2023-01-03T14:27:37.159Z,1.43
2023-01-03T14:30:06.512Z,1.77
2023-01-03T14:32:37.418Z,1.57
2023-01-03T14:35:05.931Z,2.10
2023-01-03T14:37:35.161Z,1.00
2023-01-03T14:40:06.251Z,1.97
2023-01-03T14:42:34.304Z,1.10
2023-01-03T14:45:04.855Z,1.40
2023-01-03T14:47:38.472Z,1.83
2023-01-03T14:50:08.871Z,1.70
2023-01-03T14:52:40.954Z,1.50
2023-01-03T14:55:15.739Z,2.60
2023-01-03T14:57:45.633Z,1.30
2023-01-03T15:00:19.060Z,2.40
2023-01-03T15:02:49.880Z,2.22
2023-01-03T15:05:27.603Z,2.40
2023-01-03T15:07:56.191Z,0.97
2023-01-03T15:10:32.302Z,2.03
2023-01-03T15:13:04.788Z,2.60
2023-01-03T15:15:37.025Z,1.90
2023-01-03T15:18:09.985Z,2.67
2023-01-03T15:20:39.933Z,2.15
2023-01-03T15:23:08.755Z,1.43
2023-01-03T15:25:40.047Z,2.20
2023-01-03T15:28:24.338Z,1.73
2023-01-03T15:30:55.475Z,2.35
2023-01-03T15:33:33.296Z,2.43
2023-01-03T15:36:06.493Z,1.97
2023-01-03T15:38:37.278Z,2.30
2023-01-03T15:41:16.704Z,2.57
2023-01-03T15:43:43.711Z,1.63
2023-01-03T15:46:15.769Z,2.33
2023-01-03T15:48:53.026Z,2.70
2023-01-03T15:51:20.988Z,2.30
2023-01-03T15:53:49.011Z,1.00
2023-01-03T15:56:20.091Z,2.37
2023-01-03T15:58:49.534Z,1.87
2023-01-03T16:01:18.787Z,4.27
2023-01-03T16:03:49.913Z,1.17
2023-01-03T16:06:18.155Z,3.30
2023-01-03T16:08:46.380Z,2.23
2023-01-03T16:11:19.831Z,1.57
2023-01-03T16:13:53.279Z,1.63
2023-01-03T16:16:26.455Z,2.00
2023-01-03T16:18:55.994Z,2.50
2023-01-03T16:21:24.731Z,2.83
2023-01-03T16:23:52.747Z,3.60
2023-01-03T16:26:20.816Z,2.43
2023-01-03T16:28:48.813Z,2.77
2023-01-03T16:31:19.486Z,1.93
2023-01-03T16:33:49.850Z,1.77
2023-01-03T16:36:31.886Z,1.73
2023-01-03T16:39:00.786Z,2.17
2023-01-03T16:41:28.818Z,3.03
2023-01-03T16:43:56.773Z,1.87
2023-01-03T16:46:26.946Z,2.27
2023-01-03T16:48:58.024Z,2.47
2023-01-03T16:51:30.817Z,2.50
2023-01-03T16:54:00.406Z,2.47
2023-01-03T16:56:28.392Z,1.33
2023-01-03T16:58:56.340Z,2.63
2023-01-03T17:01:24.422Z,2.33
2023-01-03T17:03:52.602Z,3.90
2023-01-03T17:06:37.654Z,3.00
2023-01-03T17:09:13.005Z,2.47
2023-01-03T17:11:41.373Z,3.10
2023-01-03T17:14:17.601Z,2.53
2023-01-03T17:16:46.337Z,2.13
2023-01-03T17:20:01.573Z,3.70
2023-01-03T17:22:14.977Z,2.27
2023-01-03T17:24:43.433Z,2.37
2023-01-03T17:27:18.245Z,1.93
2023-01-03T17:29:47.369Z,2.73
2023-01-03T17:32:18.815Z,4.23
2023-01-03T17:34:47.034Z,3.23
2023-01-03T17:37:19.597Z,2.50
2023-01-03T17:39:50.129Z,1.50
2023-01-03T17:42:18.966Z,3.27
2023-01-03T17:45:02.519Z,1.27
2023-01-03T17:47:48.074Z,2.53
2023-01-03T17:50:16.207Z,2.17
2023-01-03T17:52:48.985Z,1.50
2023-01-03T17:55:24.403Z,1.87
2023-01-03T17:57:52.815Z,3.33
2023-01-03T18:00:23.253Z,4.27
2023-01-03T18:02:51.720Z,2.80
2023-01-03T18:05:26.964Z,3.80
2023-01-03T18:07:58.570Z,3.70
2023-01-03T18:10:32.818Z,4.90
2023-01-03T18:13:01.045Z,3.63
2023-01-03T18:15:29.201Z,4.43
2023-01-03T18:17:57.157Z,2.47
2023-01-03T18:20:26.593Z,3.27
2023-01-03T18:22:54.759Z,3.27
2023-01-03T18:25:26.862Z,2.40
2023-01-03T18:27:58.783Z,2.77
2023-01-03T18:30:26.775Z,2.20
2023-01-03T18:32:54.696Z,1.47
2023-01-03T18:35:30.983Z,4.03
2023-01-03T18:38:02.288Z,1.30
2023-01-03T18:40:31.899Z,2.13
2023-01-03T18:43:10.456Z,1.70
2023-01-03T18:45:39.702Z,2.30
2023-01-03T18:48:13.399Z,1.97
2023-01-03T18:50:41.764Z,1.67
2023-01-03T18:53:16.980Z,2.73
2023-01-03T18:55:47.852Z,2.37
2023-01-03T18:58:26.809Z,1.70
2023-01-03T19:00:54.766Z,1.77
2023-01-03T19:03:25.543Z,3.03
2023-01-03T19:05:55.453Z,1.87
2023-01-03T19:08:25.911Z,3.47
2023-01-03T19:10:55.518Z,4.50
2023-01-03T19:13:27.560Z,1.17
2023-01-03T19:15:56.348Z,3.40
2023-01-03T19:18:24.488Z,3.97
2023-01-03T19:20:52.477Z,2.83
2023-01-03T19:23:24.856Z,2.93
2023-01-03T19:25:53.046Z,2.13
2023-01-03T19:28:24.931Z,2.13
2023-01-03T19:30:53.638Z,3.90
2023-01-03T19:33:21.832Z,3.13
2023-01-03T19:35:50.344Z,3.17
2023-01-03T19:38:18.367Z,2.07
2023-01-03T19:40:46.602Z,2.27
2023-01-03T19:43:21.978Z,2.20
2023-01-03T19:45:51.300Z,2.63
2023-01-03T19:48:21.504Z,3.17
2023-01-03T19:50:50.607Z,3.57
2023-01-03T19:53:18.914Z,1.33
2023-01-03T19:55:48.825Z,3.33
2023-01-03T19:58:20.415Z,2.70
2023-01-03T20:00:50.026Z,1.73
2023-01-03T20:03:26.875Z,1.97
2023-01-03T20:05:55.191Z,3.37
2023-01-03T20:08:23.264Z,2.70
2023-01-03T20:10:52.802Z,2.33
2023-01-03T20:13:24.327Z,3.60
2023-01-03T20:15:54.691Z,1.83
2023-01-03T20:18:27.263Z,1.57
2023-01-03T20:20:57.919Z,2.57
2023-01-03T20:23:27.024Z,1.70
2023-01-03T20:25:55.001Z,1.00
2023-01-03T20:28:29.408Z,2.87
2023-01-03T20:30:58.478Z,1.57
2023-01-03T20:33:29.156Z,2.73
2023-01-03T20:36:16.280Z,2.83
2023-01-03T20:38:50.205Z,2.30
2023-01-03T20:41:19.284Z,1.83
2023-01-03T20:43:50.306Z,1.63
2023-01-03T20:46:20.838Z,1.53
2023-01-03T20:48:56.903Z,2.00
2023-01-03T20:51:25.619Z,3.47
2023-01-03T20:53:54.954Z,3.93
2023-01-03T20:56:23.940Z,3.87
2023-01-03T20:58:51.879Z,2.40
2023-01-03T21:01:19.944Z,2.17
2023-01-03T21:03:48.138Z,2.83
2023-01-03T21:06:20.292Z,3.23
2023-01-03T21:08:57.857Z,2.30
2023-01-03T21:11:28.511Z,1.90
2023-01-03T21:13:57.314Z,1.43
2023-01-03T21:16:36.737Z,2.20
2023-01-03T21:19:13.012Z,1.10
2023-01-03T21:21:43.386Z,1.57
2023-01-03T21:24:12.338Z,2.37
2023-01-03T21:26:40.691Z,1.77
2023-01-03T21:29:08.702Z,1.67
2023-01-03T21:31:37.852Z,2.13
2023-01-03T21:34:08.019Z,1.73
2023-01-03T21:36:37.447Z,1.23
2023-01-03T21:39:06.817Z,1.67
2023-01-03T21:41:56.628Z,1.70
2023-01-03T21:44:24.756Z,1.77
2023-01-03T21:46:52.760Z,1.23
2023-01-03T21:49:21.180Z,2.27
2023-01-03T21:51:49.133Z,2.33
2023-01-03T21:54:18.447Z,1.73
2023-01-03T21:56:47.000Z,2.57
2023-01-03T21:59:15.724Z,2.37
2023-01-03T22:02:02.337Z,1.57
2023-01-03T22:04:30.797Z,2.13
2023-01-03T22:07:01.179Z,2.63
2023-01-03T22:09:50.101Z,1.80
2023-01-03T22:12:19.013Z,3.30
2023-01-03T22:14:47.215Z,2.57
2023-01-03T22:17:15.351Z,2.00
2023-01-03T22:19:43.490Z,2.63
2023-01-03T22:22:11.501Z,3.33
2023-01-03T22:24:40.806Z,2.80
2023-01-03T22:27:08.747Z,1.60
2023-01-03T22:29:36.767Z,1.60
2023-01-03T22:32:05.078Z,1.67
2023-01-03T22:34:33.034Z,1.30
2023-01-03T22:37:00.938Z,1.80
2023-01-03T22:39:28.869Z,1.23
2023-01-03T22:41:58.971Z,3.17
2023-01-03T22:44:26.969Z,2.13
2023-01-03T22:46:54.891Z,1.73
2023-01-03T22:49:22.847Z,1.20
2023-01-03T22:51:50.948Z,1.77
2023-01-03T22:54:18.854Z,3.33
2023-01-03T22:56:46.934Z,1.90
2023-01-03T22:59:16.534Z,1.37
2023-01-03T23:01:44.585Z,1.47
2023-01-03T23:04:13.038Z,1.23
2023-01-03T23:06:41.052Z,1.30
2023-01-03T23:09:09.048Z,1.17
2023-01-03T23:11:54.293Z,2.40
2023-01-03T23:14:24.977Z,1.60
2023-01-03T23:16:55.876Z,0.97
2023-01-03T23:19:26.045Z,0.83
2023-01-03T23:21:54.125Z,1.60
2023-01-03T23:24:25.290Z,1.10
2023-01-03T23:26:54.009Z,1.43
2023-01-03T23:29:23.419Z,1.13
2023-01-03T23:31:52.819Z,0.73
2023-01-03T23:34:20.939Z,0.60
2023-01-03T23:36:49.227Z,0.70
2023-01-03T23:39:19.402Z,2.63
2023-01-03T23:41:47.803Z,1.03
2023-01-03T23:44:15.881Z,1.87
2023-01-03T23:46:45.210Z,1.13
2023-01-03T23:49:13.531Z,1.07
2023-01-03T23:51:41.502Z,1.37
2023-01-03T23:54:09.478Z,0.57
2023-01-03T23:56:37.715Z,1.13
2023-01-03T23:59:06.112Z,0.60
